Terminal Aerodrome Forecast
Issued by NWS

Current Version | Previous Version | Text Only | Print | Product List | Glossary Off
Versions: 1 2 3 4 5 6 7 8 9 10 11 12 13 14 15 16 17 18 19 20 21 22 23 24 25

000
FTUS41 KRLX 091700
TAFCKB
TAF
KCKB 091732Z 0918/1018 24011G17KT P6SM FEW040
     FM092000 25009KT P6SM SCT040
     FM100500 00000KT 6SM BR SCT045
     FM100700 00000KT 3SM BR SCT035
     FM100800 00000KT 1 1/2SM BR SCT035
     FM101200 00000KT P6SM SCT025=

USA.gov is the U.S. government's official web portal to all federal, state and local government web resources and services.